sensor_id;sensor_type;location;lat;lon;timestamp;temperature;humidity
15666;DHT22;20725;51.196;3.510;2023-04-01T00:03:44;9.50;99.90
15666;DHT22;20725;51.196;3.510;2023-04-01T00:06:14;9.60;99.90
15666;DHT22;20725;51.196;3.510;2023-04-01T00:08:47;9.50;99.90
15666;DHT22;20725;51.196;3.510;2023-04-01T00:11:17;9.60;99.90
15666;DHT22;20725;51.196;3.510;2023-04-01T00:13:52;9.50;99.90
15666;DHT22;20725;51.196;3.510;2023-04-01T00:16:36;9.60;99.90
15666;DHT22;20725;51.196;3.510;2023-04-01T00:19:08;9.50;99.90
15666;DHT22;20725;51.196;3.510;2023-04-01T00:21:36;9.90;99.90
15666;DHT22;20725;51.196;3.510;2023-04-01T00:24:11;9.80;99.90
15666;DHT22;20725;51.196;3.510;2023-04-01T00:26:41;9.60;99.90
15666;DHT22;20725;51.196;3.510;2023-04-01T00:29:11;9.50;99.90
15666;DHT22;20725;51.196;3.510;2023-04-01T00:31:46;9.90;99.90
15666;DHT22;20725;51.196;3.510;2023-04-01T00:34:20;9.80;99.90
15666;DHT22;20725;51.196;3.510;2023-04-01T00:36:53;9.80;99.90
15666;DHT22;20725;51.196;3.510;2023-04-01T00:39:31;9.60;99.90
15666;DHT22;20725;51.196;3.510;2023-04-01T00:42:06;10.00;99.90
15666;DHT22;20725;51.196;3.510;2023-04-01T00:46:19;9.40;99.90
15666;DHT22;20725;51.196;3.510;2023-04-01T00:48:02;9.60;99.90
15666;DHT22;20725;51.196;3.510;2023-04-01T00:50:44;9.30;99.90
15666;DHT22;20725;51.196;3.510;2023-04-01T00:53:46;9.30;99.90
15666;DHT22;20725;51.196;3.510;2023-04-01T00:56:22;9.50;99.90
15666;DHT22;20725;51.196;3.510;2023-04-01T00:58:55;9.50;99.90
15666;DHT22;20725;51.196;3.510;2023-04-01T01:06:39;9.40;99.90
15666;DHT22;20725;51.196;3.510;2023-04-01T01:09:31;9.30;99.90
15666;DHT22;20725;51.196;3.510;2023-04-01T01:12:05;9.10;99.90
15666;DHT22;20725;51.196;3.510;2023-04-01T01:14:43;9.30;99.90
15666;DHT22;20725;51.196;3.510;2023-04-01T01:17:15;9.20;99.90
15666;DHT22;20725;51.196;3.510;2023-04-01T01:20:04;9.20;99.90
15666;DHT22;20725;51.196;3.510;2023-04-01T01:22:55;8.90;99.90
15666;DHT22;20725;51.196;3.510;2023-04-01T01:25:32;9.40;99.90
15666;DHT22;20725;51.196;3.510;2023-04-01T01:28:16;9.20;99.90
15666;DHT22;20725;51.196;3.510;2023-04-01T01:30:54;9.30;99.90
15666;DHT22;20725;51.196;3.510;2023-04-01T01:33:36;9.40;99.90
15666;DHT22;20725;51.196;3.510;2023-04-01T01:36:09;8.90;99.90
15666;DHT22;20725;51.196;3.510;2023-04-01T01:38:39;8.80;99.90
15666;DHT22;20725;51.196;3.510;2023-04-01T01:41:07;9.00;99.90
15666;DHT22;20725;51.196;3.510;2023-04-01T01:43:38;8.80;99.90
15666;DHT22;20725;51.196;3.510;2023-04-01T01:46:09;9.10;99.90
15666;DHT22;20725;51.196;3.510;2023-04-01T01:48:37;9.00;99.90
15666;DHT22;20725;51.196;3.510;2023-04-01T01:51:06;9.30;99.90
15666;DHT22;20725;51.196;3.510;2023-04-01T01:53:36;9.00;99.90
15666;DHT22;20725;51.196;3.510;2023-04-01T01:56:03;8.80;99.90
15666;DHT22;20725;51.196;3.510;2023-04-01T01:58:33;9.10;99.90
15666;DHT22;20725;51.196;3.510;2023-04-01T02:01:07;8.90;99.90
15666;DHT22;20725;51.196;3.510;2023-04-01T02:03:38;9.10;99.90
15666;DHT22;20725;51.196;3.510;2023-04-01T02:06:09;9.20;99.90
15666;DHT22;20725;51.196;3.510;2023-04-01T02:08:40;8.80;99.90
15666;DHT22;20725;51.196;3.510;2023-04-01T02:11:10;8.80;99.90
15666;DHT22;20725;51.196;3.510;2023-04-01T02:13:41;8.90;99.90
15666;DHT22;20725;51.196;3.510;2023-04-01T02:16:13;8.70;99.90
15666;DHT22;20725;51.196;3.510;2023-04-01T02:18:42;9.10;99.90
15666;DHT22;20725;51.196;3.510;2023-04-01T02:21:12;9.00;99.90
15666;DHT22;20725;51.196;3.510;2023-04-01T02:23:41;8.90;99.90
15666;DHT22;20725;51.196;3.510;2023-04-01T02:26:10;8.70;99.90
15666;DHT22;20725;51.196;3.510;2023-04-01T02:28:38;8.90;99.90
15666;DHT22;20725;51.196;3.510;2023-04-01T02:31:08;9.10;99.90
15666;DHT22;20725;51.196;3.510;2023-04-01T02:33:36;8.80;99.90
15666;DHT22;20725;51.196;3.510;2023-04-01T02:36:05;9.00;99.90
15666;DHT22;20725;51.196;3.510;2023-04-01T02:38:32;8.90;99.90
15666;DHT22;20725;51.196;3.510;2023-04-01T02:41:03;8.90;99.90
15666;DHT22;20725;51.196;3.510;2023-04-01T02:43:31;8.70;99.90
15666;DHT22;20725;51.196;3.510;2023-04-01T02:45:58;8.70;99.90
15666;DHT22;20725;51.196;3.510;2023-04-01T02:48:25;9.20;99.90
15666;DHT22;20725;51.196;3.510;2023-04-01T02:50:52;9.20;99.90
15666;DHT22;20725;51.196;3.510;2023-04-01T02:53:19;9.10;99.90
15666;DHT22;20725;51.196;3.510;2023-04-01T02:55:46;8.90;99.90
15666;DHT22;20725;51.196;3.510;2023-04-01T02:58:17;9.00;99.90
15666;DHT22;20725;51.196;3.510;2023-04-01T03:00:44;9.00;99.90
15666;DHT22;20725;51.196;3.510;2023-04-01T03:03:11;9.30;99.90
15666;DHT22;20725;51.196;3.510;2023-04-01T03:05:39;8.70;99.90
15666;DHT22;20725;51.196;3.510;2023-04-01T03:08:06;9.20;99.90
15666;DHT22;20725;51.196;3.510;2023-04-01T03:10:33;9.00;99.90
15666;DHT22;20725;51.196;3.510;2023-04-01T03:13:00;8.80;99.90
15666;DHT22;20725;51.196;3.510;2023-04-01T03:15:28;9.00;99.90
15666;DHT22;20725;51.196;3.510;2023-04-01T03:17:55;8.70;99.90
15666;DHT22;20725;51.196;3.510;2023-04-01T03:20:22;8.70;99.90
15666;DHT22;20725;51.196;3.510;2023-04-01T03:22:49;8.90;99.90
15666;DHT22;20725;51.196;3.510;2023-04-01T03:25:17;9.10;99.90
15666;DHT22;20725;51.196;3.510;2023-04-01T03:27:44;8.80;99.90
15666;DHT22;20725;51.196;3.510;2023-04-01T03:30:11;9.00;99.90
15666;DHT22;20725;51.196;3.510;2023-04-01T03:32:40;9.00;99.90
15666;DHT22;20725;51.196;3.510;2023-04-01T03:35:07;9.00;99.90
15666;DHT22;20725;51.196;3.510;2023-04-01T03:37:35;8.80;99.90
15666;DHT22;20725;51.196;3.510;2023-04-01T03:40:03;9.10;99.90
15666;DHT22;20725;51.196;3.510;2023-04-01T03:42:30;8.80;99.90
15666;DHT22;20725;51.196;3.510;2023-04-01T03:44:57;8.80;99.90
15666;DHT22;20725;51.196;3.510;2023-04-01T03:47:24;8.80;99.90
15666;DHT22;20725;51.196;3.510;2023-04-01T03:49:53;9.00;99.90
15666;DHT22;20725;51.196;3.510;2023-04-01T03:52:20;8.70;99.90
15666;DHT22;20725;51.196;3.510;2023-04-01T03:54:47;9.10;99.90
15666;DHT22;20725;51.196;3.510;2023-04-01T03:57:14;8.80;99.90
15666;DHT22;20725;51.196;3.510;2023-04-01T03:59:41;8.60;99.90
15666;DHT22;20725;51.196;3.510;2023-04-01T04:02:07;8.60;99.90
15666;DHT22;20725;51.196;3.510;2023-04-01T04:04:34;8.70;99.90
15666;DHT22;20725;51.196;3.510;2023-04-01T04:07:03;9.00;99.90
15666;DHT22;20725;51.196;3.510;2023-04-01T04:09:30;8.70;99.90
15666;DHT22;20725;51.196;3.510;2023-04-01T04:11:57;8.80;99.90
15666;DHT22;20725;51.196;3.510;2023-04-01T04:14:24;8.70;99.90
15666;DHT22;20725;51.196;3.510;2023-04-01T04:16:51;8.80;99.90
15666;DHT22;20725;51.196;3.510;2023-04-01T04:19:18;8.50;99.90
15666;DHT22;20725;51.196;3.510;2023-04-01T04:21:45;8.90;99.90
15666;DHT22;20725;51.196;3.510;2023-04-01T04:24:14;8.60;99.90
15666;DHT22;20725;51.196;3.510;2023-04-01T04:26:41;8.90;99.90
15666;DHT22;20725;51.196;3.510;2023-04-01T04:29:08;8.60;99.90
15666;DHT22;20725;51.196;3.510;2023-04-01T04:31:35;9.00;99.90
15666;DHT22;20725;51.196;3.510;2023-04-01T04:34:01;8.90;99.90
15666;DHT22;20725;51.196;3.510;2023-04-01T04:36:28;8.90;99.90
15666;DHT22;20725;51.196;3.510;2023-04-01T04:38:55;8.90;99.90
15666;DHT22;20725;51.196;3.510;2023-04-01T04:41:25;9.00;99.90
15666;DHT22;20725;51.196;3.510;2023-04-01T04:43:54;8.60;99.90
15666;DHT22;20725;51.196;3.510;2023-04-01T04:46:22;8.40;99.90
15666;DHT22;20725;51.196;3.510;2023-04-01T04:48:49;8.40;99.90
15666;DHT22;20725;51.196;3.510;2023-04-01T04:51:17;8.40;99.90
15666;DHT22;20725;51.196;3.510;2023-04-01T04:53:44;9.00;99.90
15666;DHT22;20725;51.196;3.510;2023-04-01T04:56:12;8.80;99.90
15666;DHT22;20725;51.196;3.510;2023-04-01T04:58:40;8.70;99.90
15666;DHT22;20725;51.196;3.510;2023-04-01T05:01:09;8.40;99.90
15666;DHT22;20725;51.196;3.510;2023-04-01T05:03:36;8.70;99.90
15666;DHT22;20725;51.196;3.510;2023-04-01T05:06:04;8.70;99.90
15666;DHT22;20725;51.196;3.510;2023-04-01T05:08:31;8.90;99.90
15666;DHT22;20725;51.196;3.510;2023-04-01T05:10:58;8.70;99.90
15666;DHT22;20725;51.196;3.510;2023-04-01T05:13:25;8.60;99.90
15666;DHT22;20725;51.196;3.510;2023-04-01T05:15:54;8.70;99.90
15666;DHT22;20725;51.196;3.510;2023-04-01T05:18:21;8.50;99.90
15666;DHT22;20725;51.196;3.510;2023-04-01T05:20:49;8.30;99.90
15666;DHT22;20725;51.196;3.510;2023-04-01T05:23:17;8.70;99.90
15666;DHT22;20725;51.196;3.510;2023-04-01T05:25:46;8.50;99.90
15666;DHT22;20725;51.196;3.510;2023-04-01T05:28:13;8.80;99.90
15666;DHT22;20725;51.196;3.510;2023-04-01T05:30:40;8.30;99.90
15666;DHT22;20725;51.196;3.510;2023-04-01T05:33:10;8.60;99.90
15666;DHT22;20725;51.196;3.510;2023-04-01T05:35:38;8.40;99.90
15666;DHT22;20725;51.196;3.510;2023-04-01T05:38:06;8.50;99.90
15666;DHT22;20725;51.196;3.510;2023-04-01T05:40:33;8.30;99.90
15666;DHT22;20725;51.196;3.510;2023-04-01T05:43:00;8.90;99.90
15666;DHT22;20725;51.196;3.510;2023-04-01T05:45:28;8.80;99.90
15666;DHT22;20725;51.196;3.510;2023-04-01T05:47:55;8.40;99.90
15666;DHT22;20725;51.196;3.510;2023-04-01T05:50:24;8.40;99.90
15666;DHT22;20725;51.196;3.510;2023-04-01T05:52:53;8.70;99.90
15666;DHT22;20725;51.196;3.510;2023-04-01T05:55:20;8.30;99.90
15666;DHT22;20725;51.196;3.510;2023-04-01T05:57:48;8.30;99.90
15666;DHT22;20725;51.196;3.510;2023-04-01T06:00:16;8.90;99.90
15666;DHT22;20725;51.196;3.510;2023-04-01T06:02:45;8.50;99.90
15666;DHT22;20725;51.196;3.510;2023-04-01T06:05:17;8.50;99.90
15666;DHT22;20725;51.196;3.510;2023-04-01T06:07:46;8.50;99.90
15666;DHT22;20725;51.196;3.510;2023-04-01T06:10:15;8.60;99.90
15666;DHT22;20725;51.196;3.510;2023-04-01T06:12:52;8.80;99.90
15666;DHT22;20725;51.196;3.510;2023-04-01T06:15:32;8.60;99.90
15666;DHT22;20725;51.196;3.510;2023-04-01T06:18:40;8.70;99.90
15666;DHT22;20725;51.196;3.510;2023-04-01T06:21:30;8.60;99.90
15666;DHT22;20725;51.196;3.510;2023-04-01T06:24:12;8.80;99.90
15666;DHT22;20725;51.196;3.510;2023-04-01T06:26:51;8.90;99.90
15666;DHT22;20725;51.196;3.510;2023-04-01T06:29:37;8.80;99.90
15666;DHT22;20725;51.196;3.510;2023-04-01T06:32:18;8.60;99.90
15666;DHT22;20725;51.196;3.510;2023-04-01T06:35:17;8.90;99.90
15666;DHT22;20725;51.196;3.510;2023-04-01T06:43:37;9.00;99.90
15666;DHT22;20725;51.196;3.510;2023-04-01T06:46:11;8.80;99.90
15666;DHT22;20725;51.196;3.510;2023-04-01T06:56:25;8.90;99.90
15666;DHT22;20725;51.196;3.510;2023-04-01T06:58:55;8.90;99.90
15666;DHT22;20725;51.196;3.510;2023-04-01T07:01:27;9.00;99.90
15666;DHT22;20725;51.196;3.510;2023-04-01T07:03:58;8.90;99.90
15666;DHT22;20725;51.196;3.510;2023-04-01T07:06:30;9.00;99.90
15666;DHT22;20725;51.196;3.510;2023-04-01T07:08:59;8.90;99.90
15666;DHT22;20725;51.196;3.510;2023-04-01T07:11:32;8.80;99.90
15666;DHT22;20725;51.196;3.510;2023-04-01T07:14:02;9.00;99.90
15666;DHT22;20725;51.196;3.510;2023-04-01T07:16:32;9.00;99.90
15666;DHT22;20725;51.196;3.510;2023-04-01T07:19:04;8.90;99.90
15666;DHT22;20725;51.196;3.510;2023-04-01T07:21:36;8.70;99.90
15666;DHT22;20725;51.196;3.510;2023-04-01T07:24:13;8.90;99.90
15666;DHT22;20725;51.196;3.510;2023-04-01T07:26:44;8.90;99.90
15666;DHT22;20725;51.196;3.510;2023-04-01T07:29:13;8.90;99.90
15666;DHT22;20725;51.196;3.510;2023-04-01T07:31:52;9.10;99.90
15666;DHT22;20725;51.196;3.510;2023-04-01T07:34:25;8.90;99.90
15666;DHT22;20725;51.196;3.510;2023-04-01T07:37:02;9.20;99.90
15666;DHT22;20725;51.196;3.510;2023-04-01T07:39:38;9.10;99.90
15666;DHT22;20725;51.196;3.510;2023-04-01T07:42:16;9.00;99.90
15666;DHT22;20725;51.196;3.510;2023-04-01T07:44:54;9.10;99.90
15666;DHT22;20725;51.196;3.510;2023-04-01T07:47:38;9.20;99.90
15666;DHT22;20725;51.196;3.510;2023-04-01T07:50:16;9.30;99.90
15666;DHT22;20725;51.196;3.510;2023-04-01T07:52:51;9.40;99.90
15666;DHT22;20725;51.196;3.510;2023-04-01T07:55:24;9.30;99.90
15666;DHT22;20725;51.196;3.510;2023-04-01T07:58:00;9.50;99.90
15666;DHT22;20725;51.196;3.510;2023-04-01T08:00:34;9.50;99.90
15666;DHT22;20725;51.196;3.510;2023-04-01T08:03:19;9.70;99.90
15666;DHT22;20725;51.196;3.510;2023-04-01T08:05:54;9.70;99.90
15666;DHT22;20725;51.196;3.510;2023-04-01T08:08:32;9.60;99.90
15666;DHT22;20725;51.196;3.510;2023-04-01T08:11:08;9.60;99.90
15666;DHT22;20725;51.196;3.510;2023-04-01T08:13:46;9.50;99.90
15666;DHT22;20725;51.196;3.510;2023-04-01T08:16:18;9.40;99.90
15666;DHT22;20725;51.196;3.510;2023-04-01T08:44:40;9.50;99.90
15666;DHT22;20725;51.196;3.510;2023-04-01T09:05:56;10.60;99.90
15666;DHT22;20725;51.196;3.510;2023-04-01T09:08:37;10.10;99.90
15666;DHT22;20725;51.196;3.510;2023-04-01T09:11:17;9.70;99.90
15666;DHT22;20725;51.196;3.510;2023-04-01T09:17:09;10.00;99.90
15666;DHT22;20725;51.196;3.510;2023-04-01T09:19:54;9.90;99.90
15666;DHT22;20725;51.196;3.510;2023-04-01T09:22:37;9.80;99.90
15666;DHT22;20725;51.196;3.510;2023-04-01T09:25:30;9.70;99.90
15666;DHT22;20725;51.196;3.510;2023-04-01T09:28:08;9.80;99.90
15666;DHT22;20725;51.196;3.510;2023-04-01T09:31:06;10.00;99.90
15666;DHT22;20725;51.196;3.510;2023-04-01T09:36:45;9.60;99.90
15666;DHT22;20725;51.196;3.510;2023-04-01T09:39:34;9.70;99.90
15666;DHT22;20725;51.196;3.510;2023-04-01T09:42:25;10.10;99.90
15666;DHT22;20725;51.196;3.510;2023-04-01T09:44:58;10.00;99.90
15666;DHT22;20725;51.196;3.510;2023-04-01T09:47:43;9.70;99.90
15666;DHT22;20725;51.196;3.510;2023-04-01T09:50:26;10.00;99.90
15666;DHT22;20725;51.196;3.510;2023-04-01T09:53:03;9.70;99.90
15666;DHT22;20725;51.196;3.510;2023-04-01T09:56:08;10.20;99.90
15666;DHT22;20725;51.196;3.510;2023-04-01T10:01:46;9.70;99.90
15666;DHT22;20725;51.196;3.510;2023-04-01T10:04:48;10.10;99.90
15666;DHT22;20725;51.196;3.510;2023-04-01T10:07:54;10.30;99.90
15666;DHT22;20725;51.196;3.510;2023-04-01T10:10:46;10.20;99.90
15666;DHT22;20725;51.196;3.510;2023-04-01T10:13:53;10.60;99.90
15666;DHT22;20725;51.196;3.510;2023-04-01T10:17:00;10.50;99.90
15666;DHT22;20725;51.196;3.510;2023-04-01T10:19:55;10.30;99.90
15666;DHT22;20725;51.196;3.510;2023-04-01T10:23:03;10.30;99.90
15666;DHT22;20725;51.196;3.510;2023-04-01T10:26:17;10.00;99.90
15666;DHT22;20725;51.196;3.510;2023-04-01T10:29:26;10.10;99.90
15666;DHT22;20725;51.196;3.510;2023-04-01T10:35:28;10.00;99.90
15666;DHT22;20725;51.196;3.510;2023-04-01T10:55:28;10.10;99.90
15666;DHT22;20725;51.196;3.510;2023-04-01T10:58:17;10.10;99.90
15666;DHT22;20725;51.196;3.510;2023-04-01T11:01:16;9.90;99.90
15666;DHT22;20725;51.196;3.510;2023-04-01T11:07:29;9.90;99.90
15666;DHT22;20725;51.196;3.510;2023-04-01T11:10:33;10.30;99.90
